Time;durP1;ratioP1;P1;durP2;ratioP2;P2;SDS_P1;SDS_P2;PMS_P1;PMS_P2;Temp;Humidity;BMP_temperature;BMP_pressure;BME280_temperature;BME280_humidity;BME280_pressure;Samples;Min_cycle;Max_cycle;Signal;HPM_P1;HPM_P2
2022/10/28 00:01:12;;;;;;;14.10;8.40;;;14.30;92.40;;;;;;5033328;28;20051;-46
2022/10/28 00:03:41;;;;;;;14.60;8.45;;;14.30;92.40;;;;;;5034205;28;20029;-46
2022/10/28 00:06:11;;;;;;;10.27;7.90;;;14.30;92.40;;;;;;5032222;28;20025;-46
2022/10/28 00:08:38;;;;;;;16.42;10.13;;;14.20;92.40;;;;;;5033970;28;20033;-46
2022/10/28 00:11:12;;;;;;;10.35;8.25;;;14.20;92.40;;;;;;5033612;28;20101;-46
2022/10/28 00:13:39;;;;;;;14.48;8.60;;;14.20;92.30;;;;;;5032522;28;20026;-46
2022/10/28 00:16:25;;;;;;;9.82;8.32;;;14.20;92.40;;;;;;5033526;28;20045;-46
2022/10/28 00:18:53;;;;;;;13.10;8.73;;;14.20;92.40;;;;;;5033801;28;20132;-46
2022/10/28 00:21:26;;;;;;;13.50;9.27;;;14.20;92.50;;;;;;5032160;28;20045;-48
2022/10/28 00:23:52;;;;;;;13.45;8.98;;;14.20;92.50;;;;;;5032320;28;20048;-46
2022/10/28 00:26:26;;;;;;;14.48;10.43;;;14.20;92.60;;;;;;5033899;28;20033;-46
2022/10/28 00:29:01;;;;;;;14.93;10.45;;;14.20;92.50;;;;;;5033556;28;20026;-46
2022/10/28 00:31:30;;;;;;;15.95;9.93;;;14.20;92.60;;;;;;5031782;28;20026;-47
2022/10/28 00:34:01;;;;;;;14.27;8.93;;;14.20;92.60;;;;;;5033797;28;20029;-46
2022/10/28 00:36:31;;;;;;;12.20;9.30;;;14.20;92.50;;;;;;5031916;28;20034;-47
2022/10/28 00:39:05;;;;;;;16.73;8.80;;;14.20;92.50;;;;;;5033867;28;20080;-46
2022/10/28 00:41:35;;;;;;;19.00;11.23;;;14.10;92.50;;;;;;5032659;28;20026;-46
2022/10/28 00:44:41;;;;;;;11.32;8.90;;;14.10;92.40;;;;;;5032421;28;20030;-47
2022/10/28 00:47:24;;;;;;;14.57;9.77;;;14.10;92.40;;;;;;5033389;28;20032;-46
2022/10/28 00:49:56;;;;;;;16.08;9.07;;;14.00;92.60;;;;;;5042091;28;20053;-46
2022/10/28 00:52:27;;;;;;;14.50;9.23;;;14.00;92.60;;;;;;5053205;28;20021;-46
2022/10/28 00:54:58;;;;;;;15.70;9.85;;;14.00;92.60;;;;;;5053347;28;20020;-46
2022/10/28 00:57:30;;;;;;;16.77;11.20;;;14.00;92.70;;;;;;5052133;28;20039;-46
2022/10/28 00:59:57;;;;;;;13.65;9.90;;;14.10;92.80;;;;;;5053256;28;20052;-46
2022/10/28 01:02:24;;;;;;;15.40;10.80;;;14.10;92.80;;;;;;5052186;28;20056;-46
2022/10/28 01:04:51;;;;;;;16.95;11.52;;;14.10;92.80;;;;;;5051240;28;20150;-46
2022/10/28 01:07:18;;;;;;;16.20;10.95;;;14.10;92.80;;;;;;5052445;28;20033;-46
2022/10/28 01:09:45;;;;;;;16.90;12.05;;;14.20;92.80;;;;;;5052285;28;20489;-47
2022/10/28 01:12:50;;;;;;;17.65;12.30;;;14.20;92.80;;;;;;5051853;28;20086;-46
2022/10/28 01:15:54;;;;;;;20.52;11.18;;;14.10;92.80;;;;;;5032142;28;20065;-46
2022/10/28 01:18:55;;;;;;;14.27;10.73;;;14.10;92.80;;;;;;5034599;28;20045;-46
2022/10/28 01:21:58;;;;;;;14.30;10.90;;;14.10;92.70;;;;;;5034194;28;20051;-46
2022/10/28 01:24:48;;;;;;;19.77;10.55;;;14.10;92.70;;;;;;5030402;28;20030;-46
2022/10/28 01:27:38;;;;;;;22.52;12.05;;;14.10;92.60;;;;;;5029983;28;20476;-49
2022/10/28 01:30:13;;;;;;;17.88;11.65;;;14.00;92.60;;;;;;5052913;28;20033;-47
2022/10/28 01:33:16;;;;;;;22.33;11.68;;;14.00;92.80;;;;;;5044248;28;20036;-47
2022/10/28 01:36:19;;;;;;;16.88;11.38;;;14.10;92.80;;;;;;5048370;28;20040;-48
2022/10/28 01:38:57;;;;;;;17.20;10.80;;;14.10;92.90;;;;;;4990166;28;20044;-51
2022/10/28 01:41:47;;;;;;;15.55;10.30;;;14.10;92.90;;;;;;5033303;28;20103;-49
2022/10/28 01:44:40;;;;;;;16.67;12.52;;;14.20;92.90;;;;;;5042411;28;20025;-46
2022/10/28 01:47:19;;;;;;;17.63;11.18;;;14.20;92.90;;;;;;5052797;28;20029;-46
2022/10/28 01:50:06;;;;;;;18.85;12.32;;;14.20;92.90;;;;;;5037837;28;20115;-45
2022/10/28 01:52:32;;;;;;;12.77;9.98;;;14.30;92.90;;;;;;5031364;28;20044;-46
2022/10/28 01:55:10;;;;;;;14.63;10.55;;;14.20;92.90;;;;;;5007824;28;20022;-46
2022/10/28 01:57:38;;;;;;;16.27;11.18;;;14.20;92.80;;;;;;5013016;28;20038;-46
2022/10/28 02:00:06;;;;;;;17.23;11.40;;;14.20;92.80;;;;;;5013151;28;20122;-46
2022/10/28 02:02:37;;;;;;;20.02;11.70;;;14.20;92.70;;;;;;5027008;28;20056;-47
2022/10/28 02:05:39;;;;;;;14.93;11.68;;;14.20;92.70;;;;;;5011870;28;20036;-46
2022/10/28 02:08:45;;;;;;;16.77;11.68;;;14.20;92.80;;;;;;5014183;28;20056;-47
2022/10/28 02:11:23;;;;;;;16.63;10.73;;;14.20;92.80;;;;;;4994431;28;20046;-47
2022/10/28 02:14:37;;;;;;;15.20;12.23;;;14.20;92.80;;;;;;4992375;28;20595;-46
2022/10/28 02:17:37;;;;;;;16.80;12.60;;;14.20;92.90;;;;;;4999027;28;20037;-46
2022/10/28 02:20:29;;;;;;;17.38;11.70;;;14.20;92.90;;;;;;5013411;28;20025;-47
2022/10/28 02:23:23;;;;;;;18.02;12.10;;;14.20;92.90;;;;;;5032714;28;20041;-46
2022/10/28 02:25:58;;;;;;;14.82;11.90;;;14.20;92.90;;;;;;5034744;28;20040;-46
2022/10/28 02:28:56;;;;;;;16.40;12.45;;;14.20;92.80;;;;;;5034597;28;20021;-46
2022/10/28 02:31:58;;;;;;;16.48;12.07;;;14.20;92.80;;;;;;5031438;28;20026;-48
2022/10/28 02:34:47;;;;;;;15.85;12.93;;;14.20;92.80;;;;;;5026308;28;20021;-46
2022/10/28 02:37:22;;;;;;;16.88;11.63;;;14.10;92.80;;;;;;5015679;28;20041;-46
2022/10/28 02:39:53;;;;;;;21.13;12.95;;;14.10;92.80;;;;;;5025010;28;20041;-46
2022/10/28 02:42:28;;;;;;;15.80;12.70;;;14.10;92.70;;;;;;4983008;28;20040;-47
2022/10/28 02:45:03;;;;;;;21.00;13.10;;;14.00;92.70;;;;;;5015662;28;20053;-46
2022/10/28 02:47:34;;;;;;;15.82;12.15;;;14.00;92.80;;;;;;5012342;28;20040;-46
2022/10/28 02:50:05;;;;;;;19.17;12.55;;;14.00;92.90;;;;;;5026702;28;20451;-47
2022/10/28 02:52:36;;;;;;;22.00;12.15;;;14.00;92.90;;;;;;5017942;28;20113;-48
2022/10/28 02:55:05;;;;;;;22.65;12.02;;;13.90;92.90;;;;;;5034381;28;20024;-46
2022/10/28 02:57:36;;;;;;;19.37;13.43;;;13.90;93.00;;;;;;5034755;28;20025;-46
2022/10/28 03:00:10;;;;;;;14.15;12.55;;;14.00;93.00;;;;;;5018004;28;20272;-48
2022/10/28 03:02:37;;;;;;;17.55;12.52;;;13.90;93.10;;;;;;5034280;28;20128;-46
2022/10/28 03:05:06;;;;;;;21.05;12.90;;;13.90;93.10;;;;;;5008960;28;20022;-47
2022/10/28 03:07:32;;;;;;;18.77;11.85;;;13.90;93.10;;;;;;5033929;28;20029;-46
2022/10/28 03:10:01;;;;;;;21.38;14.00;;;13.90;93.10;;;;;;5034923;28;20450;-46
2022/10/28 03:12:28;;;;;;;15.82;12.95;;;13.90;93.10;;;;;;5034863;28;20017;-46
2022/10/28 03:14:55;;;;;;;16.30;14.10;;;13.90;93.10;;;;;;5033383;28;20092;-46
2022/10/28 03:17:21;;;;;;;18.48;12.30;;;13.90;93.10;;;;;;5033945;28;20048;-46
2022/10/28 03:19:48;;;;;;;17.65;13.57;;;13.90;93.10;;;;;;5024108;28;20033;-46
2022/10/28 03:22:15;;;;;;;20.00;12.63;;;13.80;93.10;;;;;;5034023;28;20029;-46
2022/10/28 03:24:42;;;;;;;16.55;12.30;;;13.80;93.10;;;;;;5034733;28;20060;-46
2022/10/28 03:27:08;;;;;;;19.23;12.65;;;13.80;93.10;;;;;;5033856;28;20470;-47
2022/10/28 03:29:33;;;;;;;14.82;12.18;;;13.70;93.10;;;;;;5013413;28;20065;-50
2022/10/28 03:32:00;;;;;;;18.38;11.38;;;13.70;93.10;;;;;;5016285;28;20148;-46
2022/10/28 03:34:27;;;;;;;18.25;13.27;;;13.70;93.10;;;;;;5033185;28;20040;-46
2022/10/28 03:36:55;;;;;;;14.73;11.52;;;13.70;93.10;;;;;;5012395;28;20022;-46
2022/10/28 03:39:22;;;;;;;17.25;12.70;;;13.70;93.20;;;;;;5014959;28;20597;-48
2022/10/28 03:41:47;;;;;;;17.35;13.10;;;13.60;93.20;;;;;;5010026;28;20446;-47
2022/10/28 03:44:17;;;;;;;17.73;13.30;;;13.60;93.20;;;;;;5034685;28;20026;-47
2022/10/28 03:46:44;;;;;;;19.65;12.20;;;13.60;93.30;;;;;;5034951;28;20076;-47
2022/10/28 03:49:11;;;;;;;15.85;13.43;;;13.60;93.40;;;;;;5031582;28;20053;-47
2022/10/28 03:51:38;;;;;;;19.98;13.23;;;13.60;93.40;;;;;;5012026;28;20058;-47
2022/10/28 03:54:11;;;;;;;19.60;12.98;;;13.70;93.40;;;;;;5013967;28;20036;-46
2022/10/28 03:56:39;;;;;;;21.13;13.15;;;13.70;93.40;;;;;;5014706;28;20025;-46
2022/10/28 03:59:09;;;;;;;18.67;13.20;;;13.70;93.40;;;;;;5026170;28;20026;-46
2022/10/28 04:01:34;;;;;;;17.52;12.73;;;13.70;93.40;;;;;;5034355;28;20091;-46
2022/10/28 04:04:01;;;;;;;21.73;13.23;;;13.70;93.40;;;;;;5032432;28;20376;-48
2022/10/28 04:06:28;;;;;;;20.80;13.30;;;13.60;93.40;;;;;;5017274;28;20037;-48
2022/10/28 04:08:55;;;;;;;18.20;12.70;;;13.60;93.40;;;;;;5016061;28;20041;-46
2022/10/28 04:11:25;;;;;;;18.70;13.48;;;13.60;93.40;;;;;;5033215;28;20045;-48
2022/10/28 04:13:51;;;;;;;17.23;13.20;;;13.60;93.30;;;;;;5031950;28;20045;-48
2022/10/28 04:16:18;;;;;;;18.83;13.02;;;13.50;93.40;;;;;;5034084;28;20428;-46
2022/10/28 04:18:45;;;;;;;23.08;13.82;;;13.50;93.40;;;;;;5034146;28;20390;-46
2022/10/28 04:21:12;;;;;;;19.98;13.75;;;13.60;93.50;;;;;;5015976;28;20029;-47
2022/10/28 04:23:42;;;;;;;24.17;14.27;;;13.50;93.40;;;;;;5011217;28;20100;-47
2022/10/28 04:26:11;;;;;;;18.42;13.73;;;13.50;93.50;;;;;;5017101;28;20033;-50
2022/10/28 04:28:38;;;;;;;20.73;13.40;;;13.50;93.60;;;;;;5032892;28;20466;-47
2022/10/28 04:31:04;;;;;;;15.30;13.55;;;13.50;93.60;;;;;;5033833;28;20268;-47
2022/10/28 04:33:31;;;;;;;18.83;14.18;;;13.50;93.60;;;;;;5023331;28;20040;-48
2022/10/28 04:35:57;;;;;;;18.17;13.32;;;13.60;93.60;;;;;;5029172;28;20048;-46
2022/10/28 04:38:24;;;;;;;17.13;12.73;;;13.50;93.50;;;;;;5033010;28;20076;-47
2022/10/28 04:40:51;;;;;;;18.65;12.57;;;13.50;93.50;;;;;;5011494;28;20062;-47
2022/10/28 04:43:18;;;;;;;18.02;13.23;;;13.50;93.50;;;;;;5013635;28;20112;-47
2022/10/28 04:45:47;;;;;;;15.73;13.00;;;13.40;93.40;;;;;;5013533;28;20109;-47
2022/10/28 04:48:16;;;;;;;17.55;12.32;;;13.40;93.40;;;;;;5015894;28;20034;-48
2022/10/28 04:50:46;;;;;;;15.65;11.15;;;13.40;93.30;;;;;;5034846;28;20046;-48
2022/10/28 04:53:13;;;;;;;18.75;12.57;;;13.30;93.30;;;;;;5030229;28;20033;-49
2022/10/28 04:55:41;;;;;;;17.52;12.05;;;13.20;93.30;;;;;;5033325;28;20018;-48
2022/10/28 04:58:11;;;;;;;17.02;11.77;;;13.20;93.30;;;;;;5047178;28;20064;-47
2022/10/28 05:00:36;;;;;;;13.83;12.00;;;13.20;93.30;;;;;;5052234;28;20473;-48
2022/10/28 05:03:03;;;;;;;15.15;11.40;;;13.10;93.40;;;;;;5053272;28;20087;-47
2022/10/28 05:05:28;;;;;;;15.38;11.43;;;13.10;93.30;;;;;;5051286;28;20108;-47
2022/10/28 05:07:56;;;;;;;17.00;12.05;;;13.00;93.20;;;;;;5034507;28;20550;-48
2022/10/28 05:10:26;;;;;;;18.10;11.63;;;13.00;93.20;;;;;;5052046;28;20385;-47
2022/10/28 05:12:53;;;;;;;13.85;11.35;;;12.90;93.30;;;;;;5038479;28;20033;-47
2022/10/28 05:15:19;;;;;;;19.90;12.63;;;12.90;93.30;;;;;;5051822;28;20021;-47
2022/10/28 05:17:47;;;;;;;18.17;13.25;;;12.90;93.40;;;;;;5052571;28;20029;-47
2022/10/28 05:20:15;;;;;;;21.42;13.07;;;13.00;93.60;;;;;;5052067;28;20039;-47
2022/10/28 05:22:51;;;;;;;20.60;13.48;;;13.00;93.60;;;;;;5053097;28;20420;-47
2022/10/28 05:25:18;;;;;;;21.63;13.90;;;13.00;93.60;;;;;;5052740;28;20108;-47
2022/10/28 05:27:48;;;;;;;18.05;13.35;;;13.10;93.60;;;;;;5052017;28;20029;-49
2022/10/28 05:30:14;;;;;;;19.13;14.50;;;13.10;93.70;;;;;;5051895;28;20036;-47
2022/10/28 05:32:40;;;;;;;24.67;14.80;;;13.10;93.80;;;;;;5052000;28;20037;-47
2022/10/28 05:35:07;;;;;;;18.90;14.00;;;13.20;93.80;;;;;;5028081;28;20393;-47
2022/10/28 05:37:34;;;;;;;21.92;16.70;;;13.20;93.80;;;;;;5034477;28;20029;-48
2022/10/28 05:40:01;;;;;;;17.77;15.23;;;13.20;93.80;;;;;;5050889;28;20037;-48
2022/10/28 05:42:28;;;;;;;26.10;15.38;;;13.20;93.80;;;;;;5052698;28;20033;-47
2022/10/28 05:44:55;;;;;;;23.63;15.55;;;13.20;93.80;;;;;;5052689;28;20021;-47
2022/10/28 05:47:24;;;;;;;29.50;16.30;;;13.20;93.80;;;;;;5049842;28;20152;-49
2022/10/28 05:49:50;;;;;;;22.88;15.90;;;13.20;93.80;;;;;;5051735;28;20095;-46
2022/10/28 05:52:17;;;;;;;22.95;16.17;;;13.20;93.80;;;;;;5032487;28;20027;-46
2022/10/28 05:54:44;;;;;;;26.50;15.40;;;13.20;93.80;;;;;;5051481;28;20029;-47
2022/10/28 05:57:10;;;;;;;24.88;16.23;;;13.20;93.80;;;;;;5054139;28;20119;-47
2022/10/28 05:59:37;;;;;;;21.67;15.25;;;13.20;93.90;;;;;;5055357;28;20107;-47
2022/10/28 06:02:04;;;;;;;18.70;14.50;;;13.20;93.80;;;;;;5055556;28;20042;-48
2022/10/28 06:04:32;;;;;;;24.60;14.15;;;13.20;93.90;;;;;;5054560;28;20029;-47
2022/10/28 06:06:59;;;;;;;21.40;13.82;;;13.20;93.80;;;;;;5055808;28;20060;-48
2022/10/28 06:09:29;;;;;;;19.45;14.43;;;13.20;93.80;;;;;;5038670;28;20162;-48
2022/10/28 06:11:54;;;;;;;19.60;14.35;;;13.20;93.80;;;;;;5039137;28;20335;-47
2022/10/28 06:14:21;;;;;;;21.83;13.25;;;13.20;93.80;;;;;;5038376;28;20039;-47
2022/10/28 06:16:49;;;;;;;18.05;13.45;;;13.20;93.80;;;;;;5055104;28;20303;-49
2022/10/28 06:19:16;;;;;;;18.48;14.70;;;13.10;93.70;;;;;;5056441;28;20025;-47
2022/10/28 06:21:43;;;;;;;27.13;13.85;;;13.10;93.70;;;;;;5055291;28;20104;-47
2022/10/28 06:24:13;;;;;;;21.17;14.48;;;13.10;93.70;;;;;;5053606;28;20587;-50
2022/10/28 06:26:40;;;;;;;22.13;14.35;;;13.10;93.80;;;;;;5055686;28;20515;-47
2022/10/28 06:29:09;;;;;;;19.60;14.18;;;13.10;93.80;;;;;;5055606;28;20477;-47
2022/10/28 06:31:39;;;;;;;21.87;13.90;;;13.10;93.70;;;;;;5021912;28;20029;-47
2022/10/28 06:34:07;;;;;;;20.92;14.13;;;13.10;93.80;;;;;;5035510;28;20446;-47
2022/10/28 06:36:34;;;;;;;19.20;12.88;;;13.10;93.70;;;;;;5050926;28;20366;-48
2022/10/28 06:38:59;;;;;;;18.25;12.55;;;13.10;93.70;;;;;;5054720;28;20092;-48
2022/10/28 06:41:26;;;;;;;23.42;12.75;;;13.00;93.60;;;;;;5054679;28;20029;-52
2022/10/28 06:43:53;;;;;;;23.15;13.98;;;13.00;93.50;;;;;;5055344;28;20037;-47
2022/10/28 06:46:19;;;;;;;19.98;13.65;;;13.00;93.60;;;;;;5039178;28;20025;-47
2022/10/28 06:48:48;;;;;;;18.08;13.13;;;13.00;93.70;;;;;;5053868;28;20111;-47
2022/10/28 06:51:16;;;;;;;13.45;11.40;;;13.10;93.80;;;;;;5054524;28;20025;-47
2022/10/28 06:53:42;;;;;;;21.02;13.20;;;13.10;93.70;;;;;;5054169;28;20048;-47
2022/10/28 06:56:09;;;;;;;17.02;12.40;;;13.10;93.70;;;;;;5055563;28;20406;-49
2022/10/28 06:58:36;;;;;;;17.45;13.30;;;13.10;93.60;;;;;;5054360;28;20025;-49
2022/10/28 07:01:04;;;;;;;19.98;12.50;;;13.00;93.50;;;;;;5048575;28;20458;-46
2022/10/28 07:03:34;;;;;;;17.38;11.75;;;13.00;93.60;;;;;;5037411;28;20044;-49
2022/10/28 07:06:01;;;;;;;19.25;13.63;;;13.10;93.70;;;;;;5054387;28;20469;-48
2022/10/28 07:08:28;;;;;;;18.80;13.00;;;13.10;93.70;;;;;;5052898;28;20052;-48
2022/10/28 07:10:58;;;;;;;21.67;14.90;;;13.20;93.80;;;;;;5055372;28;20096;-47
2022/10/28 07:13:25;;;;;;;25.45;13.25;;;13.30;93.90;;;;;;5052851;28;20036;-47
2022/10/28 07:15:54;;;;;;;16.08;13.13;;;13.40;93.80;;;;;;5054929;28;20056;-49
2022/10/28 07:18:21;;;;;;;18.15;12.82;;;13.40;93.80;;;;;;5055146;28;20697;-47
2022/10/28 07:20:48;;;;;;;15.20;12.75;;;13.50;93.90;;;;;;5052341;28;20109;-48
2022/10/28 07:23:15;;;;;;;19.15;13.20;;;13.60;93.90;;;;;;5053105;28;20029;-48
2022/10/28 07:25:42;;;;;;;17.20;13.63;;;13.60;93.80;;;;;;5054526;28;20358;-48
2022/10/28 07:28:09;;;;;;;19.05;13.18;;;13.70;93.80;;;;;;5052965;28;20119;-47
2022/10/28 07:30:36;;;;;;;19.58;13.10;;;13.70;93.70;;;;;;5053751;28;20108;-47
2022/10/28 07:33:04;;;;;;;18.17;12.52;;;13.70;93.60;;;;;;5054752;28;20044;-49
2022/10/28 07:35:32;;;;;;;16.92;12.88;;;13.90;93.60;;;;;;5052980;28;20053;-47
2022/10/28 07:37:59;;;;;;;26.88;14.05;;;13.90;93.50;;;;;;5054800;28;20024;-47
2022/10/28 07:40:26;;;;;;;22.75;12.95;;;13.90;93.40;;;;;;5054584;28;20039;-50
2022/10/28 07:42:53;;;;;;;16.13;12.02;;;14.00;93.30;;;;;;5032678;28;20033;-47
2022/10/28 07:45:20;;;;;;;18.73;12.95;;;14.00;93.20;;;;;;5017326;28;20026;-47
2022/10/28 07:47:47;;;;;;;15.73;12.07;;;14.10;93.10;;;;;;5034688;28;20055;-48
2022/10/28 07:50:16;;;;;;;17.95;11.85;;;14.20;92.90;;;;;;5038547;28;20107;-49
2022/10/28 07:52:44;;;;;;;24.85;11.48;;;14.30;92.90;;;;;;5053098;28;20021;-48
2022/10/28 07:55:11;;;;;;;19.80;11.20;;;14.40;92.70;;;;;;5036875;28;20036;-47
2022/10/28 07:57:38;;;;;;;13.63;10.45;;;14.50;92.50;;;;;;5036291;28;20362;-47
2022/10/28 08:00:06;;;;;;;14.40;10.27;;;14.50;92.40;;;;;;5054241;28;20461;-47
2022/10/28 08:02:31;;;;;;;16.95;10.38;;;14.60;92.20;;;;;;5036229;28;20037;-48
2022/10/28 08:05:01;;;;;;;19.52;9.48;;;14.70;92.00;;;;;;5037493;28;20041;-47
2022/10/28 08:07:28;;;;;;;17.98;10.88;;;14.80;91.80;;;;;;5032302;28;20039;-46
2022/10/28 08:09:55;;;;;;;15.23;10.23;;;14.90;91.80;;;;;;5016718;28;20435;-48
2022/10/28 08:12:23;;;;;;;16.42;11.27;;;15.00;91.60;;;;;;5016799;28;20037;-47
2022/10/28 08:14:53;;;;;;;15.93;10.15;;;15.20;91.40;;;;;;5034320;28;20021;-47
2022/10/28 08:17:19;;;;;;;18.08;9.75;;;15.30;91.10;;;;;;5050670;28;20037;-47
2022/10/28 08:19:49;;;;;;;14.52;9.80;;;15.30;90.80;;;;;;5052893;28;20025;-47
2022/10/28 08:22:16;;;;;;;17.52;10.30;;;15.40;90.50;;;;;;5050848;28;20025;-47
2022/10/28 08:24:42;;;;;;;16.80;9.70;;;15.50;90.40;;;;;;5033810;28;20030;-47
2022/10/28 08:27:09;;;;;;;16.30;9.32;;;15.60;90.10;;;;;;5016308;28;20025;-47
2022/10/28 08:29:36;;;;;;;19.30;8.18;;;15.70;89.90;;;;;;5033914;28;20021;-48
2022/10/28 08:32:02;;;;;;;14.15;8.65;;;15.80;89.80;;;;;;5048655;28;20025;-46
2022/10/28 08:34:30;;;;;;;13.50;8.50;;;15.90;89.40;;;;;;5053625;28;20091;-47
2022/10/28 08:36:57;;;;;;;17.58;8.40;;;15.90;89.00;;;;;;5050745;28;20561;-47
2022/10/28 08:39:24;;;;;;;16.98;8.48;;;16.10;88.50;;;;;;5052397;28;20029;-47
2022/10/28 08:42:07;;;;;;;13.75;9.20;;;16.20;88.20;;;;;;5052705;28;20067;-47
2022/10/28 08:45:12;;;;;;;14.88;9.32;;;16.30;88.00;;;;;;5052381;28;20029;-48
2022/10/28 08:47:59;;;;;;;11.82;6.85;;;16.40;87.60;;;;;;5053502;28;20389;-47
2022/10/28 08:50:30;;;;;;;14.25;8.65;;;16.60;87.50;;;;;;5052491;28;20502;-49
2022/10/28 08:53:17;;;;;;;13.60;7.00;;;16.90;87.10;;;;;;5052382;28;20021;-47
2022/10/28 08:55:47;;;;;;;20.95;8.55;;;17.00;86.70;;;;;;5053158;28;20167;-48
2022/10/28 08:58:33;;;;;;;15.10;7.10;;;17.20;85.80;;;;;;5019791;28;20033;-49
2022/10/28 09:01:00;;;;;;;13.73;8.15;;;17.20;85.60;;;;;;5052035;28;20649;-48
2022/10/28 09:03:31;;;;;;;12.65;7.68;;;17.40;85.30;;;;;;5053225;28;20351;-49
2022/10/28 09:06:02;;;;;;;18.83;8.40;;;17.40;85.00;;;;;;5051176;28;20037;-48
2022/10/28 09:08:41;;;;;;;11.65;7.45;;;17.30;85.00;;;;;;5036060;28;20037;-48
2022/10/28 09:11:38;;;;;;;10.07;7.97;;;17.40;85.30;;;;;;5053171;28;20087;-48
2022/10/28 09:14:14;;;;;;;18.08;7.30;;;17.40;85.20;;;;;;5051784;28;20029;-48
2022/10/28 09:17:18;;;;;;;11.23;7.55;;;17.50;85.20;;;;;;5052903;28;20025;-48
2022/10/28 09:19:58;;;;;;;11.98;7.80;;;17.60;84.90;;;;;;5052462;28;20114;-48
2022/10/28 09:22:33;;;;;;;12.88;8.50;;;17.70;84.50;;;;;;5042941;28;20056;-48
2022/10/28 09:25:10;;;;;;;12.75;8.20;;;17.80;84.10;;;;;;5034925;28;20151;-50
2022/10/28 09:28:00;;;;;;;13.05;8.73;;;17.90;84.00;;;;;;5052907;28;20108;-48
2022/10/28 09:31:03;;;;;;;16.13;8.75;;;17.90;84.30;;;;;;5052871;28;20039;-50
2022/10/28 09:33:49;;;;;;;15.18;8.18;;;18.00;84.20;;;;;;5035229;28;20033;-48
2022/10/28 09:36:23;;;;;;;14.57;7.72;;;18.10;83.80;;;;;;5051159;28;20032;-54
2022/10/28 09:38:53;;;;;;;12.95;7.45;;;18.20;83.20;;;;;;5056165;28;20077;-48
2022/10/28 09:41:26;;;;;;;16.60;8.60;;;18.20;83.50;;;;;;5055614;28;20474;-49
2022/10/28 09:44:04;;;;;;;12.90;7.85;;;18.20;82.90;;;;;;5056930;28;20029;-48
2022/10/28 09:46:31;;;;;;;14.55;7.65;;;18.20;83.40;;;;;;5035711;28;20037;-51
2022/10/28 09:49:03;;;;;;;17.45;9.07;;;18.20;83.50;;;;;;5036791;28;20359;-49
2022/10/28 09:51:44;;;;;;;18.20;8.13;;;18.20;83.30;;;;;;5049758;28;20048;-52
2022/10/28 09:54:12;;;;;;;13.27;8.35;;;18.30;83.80;;;;;;5055782;28;20116;-48
2022/10/28 09:56:40;;;;;;;12.73;7.40;;;18.40;83.80;;;;;;5056774;28;20025;-48
2022/10/28 09:59:10;;;;;;;18.80;7.95;;;18.50;83.80;;;;;;5056705;28;20025;-50
2022/10/28 10:01:38;;;;;;;9.90;6.53;;;18.70;83.70;;;;;;5015383;28;20033;-48
2022/10/28 10:04:20;;;;;;;14.32;7.32;;;18.80;83.10;;;;;;5036543;28;20407;-50
2022/10/28 10:07:02;;;;;;;11.60;7.13;;;18.80;82.40;;;;;;5051050;28;20115;-48
2022/10/28 10:09:31;;;;;;;11.82;7.60;;;18.90;82.70;;;;;;5019171;28;20042;-55
2022/10/28 10:12:11;;;;;;;;;;;18.90;82.80;;;;;;5036922;28;20040;-49
2022/10/28 10:14:53;;;;;;;;;;;18.80;82.20;;;;;;5049363;28;19908;-51
2022/10/28 10:17:44;;;;;;;16.15;8.57;;;18.90;82.30;;;;;;5056217;28;19909;-49
2022/10/28 10:20:19;;;;;;;14.95;9.27;;;18.90;82.30;;;;;;5039865;28;20039;-48
2022/10/28 10:22:48;;;;;;;16.75;7.78;;;18.90;81.90;;;;;;5038828;28;20454;-50
2022/10/28 10:25:19;;;;;;;14.30;6.80;;;18.90;82.30;;;;;;5033864;28;20033;-48
2022/10/28 10:28:01;;;;;;;12.68;7.55;;;18.90;82.50;;;;;;5036105;28;20029;-48
2022/10/28 10:30:36;;;;;;;16.25;7.95;;;18.90;82.40;;;;;;5042299;28;20040;-49
2022/10/28 10:33:06;;;;;;;16.05;8.27;;;18.90;82.50;;;;;;5038230;28;20025;-48
2022/10/28 10:35:35;;;;;;;16.05;7.47;;;18.90;82.50;;;;;;5053950;28;20083;-48
2022/10/28 10:38:05;;;;;;;13.73;7.55;;;18.80;82.50;;;;;;5054134;28;20037;-49
2022/10/28 10:40:35;;;;;;;15.82;7.68;;;18.80;82.70;;;;;;5037224;28;20370;-48
2022/10/28 10:43:29;;;;;;;16.48;8.15;;;18.90;82.50;;;;;;5055692;28;20323;-48
2022/10/28 10:46:17;;;;;;;13.82;8.45;;;19.10;82.60;;;;;;5055841;28;20522;-47
2022/10/28 10:48:43;;;;;;;12.45;7.70;;;19.20;81.90;;;;;;5055119;28;20051;-51
2022/10/28 10:51:23;;;;;;;14.77;8.35;;;19.40;81.80;;;;;;5037378;28;20489;-48
2022/10/28 10:53:59;;;;;;;13.07;8.43;;;19.50;81.40;;;;;;5055607;28;20118;-49
2022/10/28 10:56:35;;;;;;;14.13;8.35;;;19.60;80.80;;;;;;5054584;28;20024;-49
2022/10/28 10:59:06;;;;;;;13.75;7.25;;;19.70;80.60;;;;;;5055436;28;20031;-53
2022/10/28 11:01:38;;;;;;;14.60;7.60;;;19.70;80.40;;;;;;5054294;28;20116;-47
2022/10/28 11:04:07;;;;;;;13.32;7.80;;;19.70;80.10;;;;;;5054340;28;20130;-49
2022/10/28 11:06:42;;;;;;;16.50;9.65;;;19.70;80.40;;;;;;5053246;28;20382;-48
2022/10/28 11:09:30;;;;;;;14.70;7.45;;;19.70;80.60;;;;;;5053391;28;20048;-49
2022/10/28 11:11:57;;;;;;;14.48;7.60;;;19.50;80.10;;;;;;5055242;28;20040;-47
2022/10/28 11:14:27;;;;;;;16.67;7.28;;;19.40;80.50;;;;;;5032950;28;20071;-50
2022/10/28 11:17:21;;;;;;;15.70;7.53;;;19.40;80.50;;;;;;5039319;28;20025;-50
2022/10/28 11:19:56;;;;;;;11.35;7.43;;;19.40;80.70;;;;;;5054996;28;20025;-48
2022/10/28 11:22:51;;;;;;;14.85;6.93;;;19.30;80.70;;;;;;5052300;28;20033;-48
2022/10/28 11:25:43;;;;;;;15.55;7.28;;;19.30;81.20;;;;;;5036371;28;20037;-50
2022/10/28 11:28:51;;;;;;;13.43;7.50;;;19.30;81.20;;;;;;5053427;28;20037;-49
2022/10/28 11:31:51;;;;;;;15.18;7.55;;;19.30;81.80;;;;;;5053551;28;20029;-48
2022/10/28 11:34:47;;;;;;;17.35;7.50;;;19.30;81.80;;;;;;5053762;28;20040;-48
2022/10/28 11:37:43;;;;;;;15.32;7.18;;;19.30;81.30;;;;;;5043521;28;20743;-51
2022/10/28 11:40:48;;;;;;;15.20;7.82;;;19.40;81.40;;;;;;5035076;28;20662;-49
2022/10/28 11:43:51;;;;;;;17.60;8.23;;;19.50;81.70;;;;;;5034804;28;20025;-48
2022/10/28 11:46:42;;;;;;;15.02;7.60;;;19.50;80.90;;;;;;5017628;28;20358;-49
2022/10/28 11:49:50;;;;;;;18.40;7.28;;;19.50;81.10;;;;;;5034303;28;20417;-47
2022/10/28 11:53:03;;;;;;;12.95;7.28;;;19.40;81.10;;;;;;5045505;28;20040;-48
2022/10/28 11:55:44;;;;;;;14.32;7.57;;;19.40;81.20;;;;;;5052432;28;20402;-48
2022/10/28 11:58:30;;;;;;;18.83;7.50;;;19.40;81.80;;;;;;5054345;28;20029;-48
2022/10/28 12:01:22;;;;;;;14.23;6.85;;;19.40;81.30;;;;;;5054680;28;20031;-47
2022/10/28 12:04:16;;;;;;;14.07;7.00;;;19.40;81.40;;;;;;5053221;28;20025;-48
2022/10/28 12:07:03;;;;;;;15.18;7.38;;;19.40;81.50;;;;;;5048373;28;20032;-48
2022/10/28 12:09:54;;;;;;;13.50;8.15;;;19.50;81.80;;;;;;5053556;28;20025;-48
2022/10/28 12:12:44;;;;;;;19.05;8.43;;;19.50;82.10;;;;;;5049614;28;20551;-47
2022/10/28 12:15:33;;;;;;;17.08;8.02;;;19.50;82.10;;;;;;5052309;28;20124;-48
2022/10/28 12:18:35;;;;;;;15.68;7.53;;;19.60;81.90;;;;;;5053341;28;20091;-48
2022/10/28 12:21:12;;;;;;;13.20;6.88;;;19.60;81.50;;;;;;5051529;28;20152;-48
2022/10/28 12:23:43;;;;;;;11.35;6.90;;;19.60;81.40;;;;;;5053869;28;20086;-48
2022/10/28 12:26:15;;;;;;;18.75;7.93;;;19.60;81.50;;;;;;5052799;28;20059;-47
2022/10/28 12:29:00;;;;;;;18.90;7.80;;;19.50;81.20;;;;;;5036212;28;20029;-49
2022/10/28 12:31:47;;;;;;;13.98;7.22;;;19.50;81.50;;;;;;5051913;28;20029;-48
2022/10/28 12:34:19;;;;;;;16.70;7.95;;;19.50;81.20;;;;;;5036076;28;20485;-48
2022/10/28 12:36:54;;;;;;;13.75;7.65;;;19.50;81.20;;;;;;5051904;28;20087;-47
2022/10/28 12:39:33;;;;;;;13.13;7.78;;;19.50;81.50;;;;;;5033668;28;20133;-47
2022/10/28 12:42:20;;;;;;;20.13;7.63;;;19.50;81.60;;;;;;5033783;28;20370;-48
2022/10/28 12:44:51;;;;;;;14.52;7.90;;;19.50;82.00;;;;;;5033658;28;20025;-50
2022/10/28 12:47:48;;;;;;;14.77;7.63;;;19.40;81.50;;;;;;5045080;28;20040;-48
2022/10/28 12:50:37;;;;;;;13.70;7.15;;;19.40;81.90;;;;;;5052318;28;20497;-48
2022/10/28 12:53:38;;;;;;;14.95;6.90;;;19.40;81.80;;;;;;5053480;28;20108;-48
2022/10/28 12:56:17;;;;;;;15.18;8.02;;;19.40;81.30;;;;;;5051585;28;20021;-47
2022/10/28 12:59:07;;;;;;;16.20;7.47;;;19.50;81.50;;;;;;5053212;28;20056;-48
2022/10/28 13:01:34;;;;;;;;;;;19.50;81.90;;;;;;5053849;28;20037;-48
2022/10/28 13:04:02;;;;;;;14.77;7.03;;;19.50;81.90;;;;;;5051899;28;20295;-48
2022/10/28 13:07:04;;;;;;;15.18;6.85;;;19.50;81.90;;;;;;5051477;28;20033;-48
2022/10/28 13:09:48;;;;;;;12.50;7.45;;;19.60;81.70;;;;;;5053099;28;20048;-48
2022/10/28 13:12:32;;;;;;;16.10;8.82;;;19.50;81.80;;;;;;5030938;28;20036;-48